Time;durP1;ratioP1;P1;durP2;ratioP2;P2;SDS_P1;SDS_P2;PMS_P1;PMS_P2;Temp;Humidity;BMP_temperature;BMP_pressure;BME280_temperature;BME280_humidity;BME280_pressure;Samples;Min_cycle;Max_cycle;Signal;HPM_P1;HPM_P2
2022/03/11 00:01:26;;;;;;;12.35;5.28;;;;;;;;;;5072726;28;20032;-69
2022/03/11 00:03:52;;;;;;;13.90;5.07;;;;;;;;;;5055384;28;20380;-71
2022/03/11 00:06:18;;;;;;;13.85;5.10;;;;;;;;;;5070826;28;20028;-70
2022/03/11 00:08:44;;;;;;;15.57;5.10;;;;;;;;;;5071795;28;20025;-68
2022/03/11 00:11:10;;;;;;;7.75;5.03;;;;;;;;;;5071356;28;20036;-69
2022/03/11 00:13:36;;;;;;;9.55;4.85;;;;;;;;;;5072602;28;20057;-68
2022/03/11 00:16:02;;;;;;;9.15;4.53;;;;;;;;;;5053146;28;20460;-70
2022/03/11 00:18:28;;;;;;;8.52;4.22;;;;;;;;;;5070486;28;20487;-70
2022/03/11 00:20:54;;;;;;;9.02;4.35;;;;;;;;;;5069415;28;20045;-67
2022/03/11 00:23:20;;;;;;;8.82;4.53;;;;;;;;;;5073725;28;20108;-71
2022/03/11 00:25:46;;;;;;;5.63;4.03;;;;;;;;;;5073494;28;20158;-71
2022/03/11 00:28:13;;;;;;;6.82;4.68;;;;;;;;;;5068812;28;20044;-70
2022/03/11 00:30:39;;;;;;;6.68;4.18;;;;;;;;;;5071892;28;20130;-71
2022/03/11 00:33:05;;;;;;;7.05;4.35;;;;;;;;;;5056085;28;20051;-70
2022/03/11 00:35:32;;;;;;;6.32;4.38;;;;;;;;;;5072591;28;20143;-70
2022/03/11 00:37:58;;;;;;;4.68;4.00;;;;;;;;;;5053820;28;20025;-68
2022/03/11 00:40:24;;;;;;;5.72;3.90;;;;;;;;;;5072118;28;20039;-68
2022/03/11 00:42:50;;;;;;;9.95;3.80;;;;;;;;;;5072079;28;20095;-67
2022/03/11 00:45:16;;;;;;;10.07;3.45;;;;;;;;;;5071254;28;20104;-68
2022/03/11 00:47:42;;;;;;;5.30;3.90;;;;;;;;;;5069818;28;20395;-69
2022/03/11 00:50:09;;;;;;;14.15;4.00;;;;;;;;;;5071891;28;20095;-69
2022/03/11 00:52:35;;;;;;;13.07;4.00;;;;;;;;;;5051408;28;20140;-69
2022/03/11 00:55:02;;;;;;;6.05;3.80;;;;;;;;;;5054385;28;20111;-67
2022/03/11 00:57:28;;;;;;;8.13;3.70;;;;;;;;;;5070462;28;20028;-69
2022/03/11 00:59:54;;;;;;;10.50;4.03;;;;;;;;;;5071730;28;20035;-68
2022/03/11 01:02:20;;;;;;;7.47;3.65;;;;;;;;;;5070521;28;20042;-66
2022/03/11 01:04:50;;;;;;;11.60;3.40;;;;;;;;;;5068674;28;20046;-68
2022/03/11 01:07:17;;;;;;;8.25;3.65;;;;;;;;;;5070172;28;20158;-68
2022/03/11 01:09:43;;;;;;;6.90;3.33;;;;;;;;;;5071548;28;20107;-68
2022/03/11 01:12:09;;;;;;;6.38;3.25;;;;;;;;;;5070835;28;20115;-69
2022/03/11 01:14:34;;;;;;;6.75;3.65;;;;;;;;;;5051559;28;20433;-68
2022/03/11 01:17:00;;;;;;;7.18;3.53;;;;;;;;;;5070534;28;20020;-69
2022/03/11 01:19:26;;;;;;;8.07;3.30;;;;;;;;;;5071591;28;20020;-69
2022/03/11 01:21:52;;;;;;;7.13;3.30;;;;;;;;;;5068886;28;20462;-68
2022/03/11 01:24:21;;;;;;;7.53;3.55;;;;;;;;;;5071296;28;20082;-69
2022/03/11 01:26:47;;;;;;;6.38;3.50;;;;;;;;;;5071255;28;20472;-73
2022/03/11 01:29:13;;;;;;;5.60;3.20;;;;;;;;;;5069774;28;20134;-70
2022/03/11 01:31:39;;;;;;;11.30;3.40;;;;;;;;;;5070676;28;20799;-68
2022/03/11 01:34:05;;;;;;;5.90;3.13;;;;;;;;;;5072035;28;20102;-70
2022/03/11 01:36:30;;;;;;;4.95;2.90;;;;;;;;;;5070606;28;20032;-69
2022/03/11 01:38:56;;;;;;;5.50;3.47;;;;;;;;;;5070858;28;20047;-69
2022/03/11 01:41:23;;;;;;;6.20;3.40;;;;;;;;;;5069609;28;20025;-70
2022/03/11 01:43:51;;;;;;;8.18;3.20;;;;;;;;;;5067455;28;20461;-70
2022/03/11 01:46:17;;;;;;;5.15;2.97;;;;;;;;;;5070396;28;20402;-67
2022/03/11 01:48:43;;;;;;;8.07;3.55;;;;;;;;;;5067479;28;20082;-70
2022/03/11 01:51:09;;;;;;;10.80;3.10;;;;;;;;;;5069106;28;20074;-68
2022/03/11 01:53:35;;;;;;;8.55;3.30;;;;;;;;;;5069616;28;20020;-68
2022/03/11 01:56:02;;;;;;;5.53;3.17;;;;;;;;;;5052169;28;20070;-70
2022/03/11 01:58:28;;;;;;;6.05;2.75;;;;;;;;;;5067009;28;20032;-71
2022/03/11 02:00:54;;;;;;;11.68;3.10;;;;;;;;;;5070287;28;20036;-66
2022/03/11 02:03:20;;;;;;;9.77;3.17;;;;;;;;;;5065692;28;20107;-65
2022/03/11 02:05:46;;;;;;;10.07;3.25;;;;;;;;;;5068561;28;20028;-67
2022/03/11 02:08:12;;;;;;;3.72;2.65;;;;;;;;;;5047584;28;20025;-68
2022/03/11 02:10:38;;;;;;;9.60;3.30;;;;;;;;;;5072033;28;20082;-66
2022/03/11 02:13:06;;;;;;;5.35;2.80;;;;;;;;;;5053858;28;20036;-65
2022/03/11 02:15:32;;;;;;;7.88;3.38;;;;;;;;;;5054550;28;20021;-64
2022/03/11 02:17:58;;;;;;;5.22;3.20;;;;;;;;;;5072041;28;20032;-65
2022/03/11 02:20:24;;;;;;;6.80;3.20;;;;;;;;;;5058201;28;20103;-72
2022/03/11 02:22:50;;;;;;;12.65;3.20;;;;;;;;;;5072788;28;20029;-68
2022/03/11 02:25:16;;;;;;;6.70;3.05;;;;;;;;;;5071449;28;20028;-69
2022/03/11 02:27:43;;;;;;;16.88;3.40;;;;;;;;;;5072253;28;20073;-70
2022/03/11 02:30:13;;;;;;;8.82;3.58;;;;;;;;;;5071982;28;20028;-69
2022/03/11 02:32:39;;;;;;;4.28;2.50;;;;;;;;;;5069154;28;20100;-68
2022/03/11 02:35:05;;;;;;;11.75;2.70;;;;;;;;;;5054083;28;20017;-63
2022/03/11 02:37:31;;;;;;;13.13;3.20;;;;;;;;;;5071888;28;20036;-63
2022/03/11 02:39:57;;;;;;;8.52;3.20;;;;;;;;;;5071734;28;20021;-65
2022/03/11 02:42:23;;;;;;;20.77;3.15;;;;;;;;;;5071496;28;20094;-64
2022/03/11 02:44:49;;;;;;;4.35;3.22;;;;;;;;;;5071534;28;20040;-64
2022/03/11 02:47:15;;;;;;;15.45;3.20;;;;;;;;;;5071844;28;20032;-65
2022/03/11 02:49:41;;;;;;;8.10;3.20;;;;;;;;;;5070189;28;20027;-64
2022/03/11 02:52:07;;;;;;;9.27;2.95;;;;;;;;;;5059706;28;20040;-65
2022/03/11 02:54:34;;;;;;;6.97;3.10;;;;;;;;;;5071731;28;20021;-65
2022/03/11 02:57:00;;;;;;;11.93;3.05;;;;;;;;;;5076106;28;20024;-64
2022/03/11 02:59:26;;;;;;;9.90;2.80;;;;;;;;;;5075421;28;20479;-64
2022/03/11 03:01:52;;;;;;;7.38;3.42;;;;;;;;;;5057292;28;20036;-64
2022/03/11 03:04:18;;;;;;;4.38;2.70;;;;;;;;;;5057046;28;20025;-64
2022/03/11 03:06:44;;;;;;;7.97;3.30;;;;;;;;;;5067221;28;20056;-64
2022/03/11 03:09:10;;;;;;;6.38;3.28;;;;;;;;;;5075214;28;20368;-65
2022/03/11 03:11:36;;;;;;;3.45;3.10;;;;;;;;;;5057057;28;20033;-63
2022/03/11 03:14:03;;;;;;;4.03;3.33;;;;;;;;;;5075241;28;20041;-65
2022/03/11 03:16:29;;;;;;;6.70;3.55;;;;;;;;;;5074286;28;20037;-63
2022/03/11 03:18:55;;;;;;;3.28;2.72;;;;;;;;;;5075344;28;20030;-64
2022/03/11 03:21:22;;;;;;;7.05;2.95;;;;;;;;;;5074824;28;20045;-65
2022/03/11 03:23:48;;;;;;;3.50;3.20;;;;;;;;;;5075188;28;20013;-63
2022/03/11 03:26:14;;;;;;;6.03;2.70;;;;;;;;;;5056982;28;20043;-64
2022/03/11 03:28:39;;;;;;;3.88;2.90;;;;;;;;;;5074896;28;20032;-65
2022/03/11 03:31:06;;;;;;;6.43;3.17;;;;;;;;;;5074661;28;20078;-71
2022/03/11 03:33:32;;;;;;;3.97;2.95;;;;;;;;;;5074123;28;20020;-70
2022/03/11 03:35:58;;;;;;;6.05;2.95;;;;;;;;;;5062660;28;20116;-71
2022/03/11 03:38:24;;;;;;;4.28;3.13;;;;;;;;;;5071386;28;20112;-70
2022/03/11 03:40:50;;;;;;;4.72;3.03;;;;;;;;;;5074936;28;20039;-67
2022/03/11 03:43:16;;;;;;;4.47;3.22;;;;;;;;;;5074714;28;20056;-70
2022/03/11 03:45:42;;;;;;;5.20;3.20;;;;;;;;;;5074773;28;20052;-67
2022/03/11 03:48:08;;;;;;;3.42;2.80;;;;;;;;;;5057065;28;20021;-69
2022/03/11 03:50:34;;;;;;;3.92;2.88;;;;;;;;;;5075093;28;20021;-69
2022/03/11 03:53:00;;;;;;;3.15;2.55;;;;;;;;;;5074525;28;20043;-69
2022/03/11 03:55:26;;;;;;;5.60;3.00;;;;;;;;;;5074614;28;20464;-70
2022/03/11 03:57:52;;;;;;;4.90;2.78;;;;;;;;;;5074482;28;20032;-70
2022/03/11 04:00:18;;;;;;;3.72;3.00;;;;;;;;;;5056531;28;20032;-70
2022/03/11 04:02:45;;;;;;;2.88;2.58;;;;;;;;;;5074271;28;20086;-70
2022/03/11 04:05:12;;;;;;;3.22;2.83;;;;;;;;;;5065018;28;20033;-70
2022/03/11 04:07:39;;;;;;;5.43;3.30;;;;;;;;;;5074387;28;20141;-68
2022/03/11 04:10:05;;;;;;;4.28;2.92;;;;;;;;;;5069286;28;20100;-68
2022/03/11 04:12:32;;;;;;;5.45;3.03;;;;;;;;;;5068928;28;20386;-69
2022/03/11 04:14:58;;;;;;;4.72;3.05;;;;;;;;;;5074326;28;20100;-69
2022/03/11 04:17:24;;;;;;;22.30;3.33;;;;;;;;;;5056340;28;20111;-64
2022/03/11 04:19:50;;;;;;;6.40;3.20;;;;;;;;;;5056213;28;20115;-64
2022/03/11 04:22:16;;;;;;;4.25;3.03;;;;;;;;;;5073938;28;20056;-63
2022/03/11 04:24:42;;;;;;;4.53;2.75;;;;;;;;;;5073406;28;20035;-65
2022/03/11 04:27:09;;;;;;;3.88;2.65;;;;;;;;;;5074087;28;20099;-64
2022/03/11 04:29:36;;;;;;;7.63;2.92;;;;;;;;;;5073979;28;20024;-68
2022/03/11 04:32:03;;;;;;;5.55;3.00;;;;;;;;;;5073938;28;20044;-69
2022/03/11 04:34:29;;;;;;;4.95;3.22;;;;;;;;;;5066678;28;20086;-69
2022/03/11 04:36:56;;;;;;;4.13;3.08;;;;;;;;;;5073790;28;20032;-67
2022/03/11 04:39:24;;;;;;;5.13;2.78;;;;;;;;;;5073799;28;20419;-71
2022/03/11 04:41:51;;;;;;;6.53;2.75;;;;;;;;;;5073507;28;20020;-70
2022/03/11 04:44:17;;;;;;;8.15;3.08;;;;;;;;;;5073931;28;20032;-69
2022/03/11 04:46:43;;;;;;;6.65;3.00;;;;;;;;;;5073640;28;20380;-69
2022/03/11 04:49:09;;;;;;;3.72;2.70;;;;;;;;;;5073776;28;20032;-69
2022/03/11 04:51:36;;;;;;;6.00;2.95;;;;;;;;;;5073225;28;20040;-66
2022/03/11 04:54:02;;;;;;;5.32;2.90;;;;;;;;;;5073653;28;20024;-68
2022/03/11 04:56:30;;;;;;;4.18;2.80;;;;;;;;;;5073501;28;20108;-69
2022/03/11 04:58:56;;;;;;;3.97;3.00;;;;;;;;;;5073424;28;20032;-70
2022/03/11 05:01:22;;;;;;;3.38;2.95;;;;;;;;;;5073240;28;20020;-70
2022/03/11 05:03:48;;;;;;;3.70;3.13;;;;;;;;;;5073418;28;20020;-70
2022/03/11 05:06:14;;;;;;;5.03;3.13;;;;;;;;;;5070192;28;20107;-68
2022/03/11 05:08:40;;;;;;;4.10;3.40;;;;;;;;;;5067048;28;20024;-70
2022/03/11 05:11:06;;;;;;;6.18;2.90;;;;;;;;;;5059246;28;20040;-64
2022/03/11 05:13:32;;;;;;;3.92;3.03;;;;;;;;;;5055160;28;20028;-66
2022/03/11 05:15:59;;;;;;;10.95;3.30;;;;;;;;;;5072999;28;20021;-64
2022/03/11 05:18:25;;;;;;;3.45;2.65;;;;;;;;;;5055178;28;20055;-67
2022/03/11 05:20:51;;;;;;;6.55;3.13;;;;;;;;;;5072668;28;20063;-67
2022/03/11 05:23:17;;;;;;;5.05;3.13;;;;;;;;;;5071720;28;20102;-69
2022/03/11 05:25:43;;;;;;;3.67;3.10;;;;;;;;;;5061899;28;20092;-64
2022/03/11 05:28:09;;;;;;;5.47;3.17;;;;;;;;;;5070135;28;20058;-65
2022/03/11 05:30:36;;;;;;;3.08;2.78;;;;;;;;;;5072999;28;20758;-67
2022/03/11 05:33:02;;;;;;;4.63;3.00;;;;;;;;;;5054880;28;20119;-68
2022/03/11 05:35:28;;;;;;;3.85;2.90;;;;;;;;;;5072572;28;20475;-70
2022/03/11 05:37:54;;;;;;;3.75;2.92;;;;;;;;;;5071608;28;20036;-68
2022/03/11 05:40:20;;;;;;;6.30;3.00;;;;;;;;;;5065254;28;20029;-68
2022/03/11 05:42:46;;;;;;;3.00;2.70;;;;;;;;;;5054713;28;20123;-64
2022/03/11 05:45:12;;;;;;;3.83;3.03;;;;;;;;;;5072464;28;20032;-69
2022/03/11 05:47:39;;;;;;;9.85;2.67;;;;;;;;;;5072590;28;20472;-70
2022/03/11 05:50:05;;;;;;;4.93;3.00;;;;;;;;;;5072421;28;20082;-69
2022/03/11 05:52:31;;;;;;;4.30;2.65;;;;;;;;;;5072045;28;20120;-70
2022/03/11 05:54:57;;;;;;;3.10;2.65;;;;;;;;;;5054245;28;20112;-69
2022/03/11 05:57:23;;;;;;;2.83;2.45;;;;;;;;;;5072357;28;20033;-68
2022/03/11 05:59:49;;;;;;;3.47;2.92;;;;;;;;;;5051122;28;20032;-71
2022/03/11 06:02:15;;;;;;;5.55;2.65;;;;;;;;;;5071881;28;20033;-71
2022/03/11 06:04:41;;;;;;;5.43;2.53;;;;;;;;;;5071796;28;20028;-67
2022/03/11 06:07:07;;;;;;;4.43;2.65;;;;;;;;;;5071616;28;20020;-69
2022/03/11 06:09:33;;;;;;;2.85;2.35;;;;;;;;;;5068903;28;20534;-71
2022/03/11 06:11:59;;;;;;;3.25;2.95;;;;;;;;;;5070118;28;20164;-69
2022/03/11 06:14:25;;;;;;;9.13;2.90;;;;;;;;;;5069641;28;20024;-70
2022/03/11 06:16:51;;;;;;;3.75;2.65;;;;;;;;;;5071209;28;20029;-64
2022/03/11 06:19:17;;;;;;;3.65;2.58;;;;;;;;;;5073219;28;20112;-72
2022/03/11 06:21:43;;;;;;;17.80;4.05;;;;;;;;;;5056270;28;20075;-74
2022/03/11 06:24:09;;;;;;;18.58;4.18;;;;;;;;;;5057699;28;20032;-71
2022/03/11 06:26:35;;;;;;;10.02;4.43;;;;;;;;;;5072624;28;20029;-72
2022/03/11 06:29:01;;;;;;;13.43;4.28;;;;;;;;;;5072283;28;20021;-71
2022/03/11 06:31:27;;;;;;;15.10;4.75;;;;;;;;;;5073904;28;20361;-74
2022/03/11 06:33:54;;;;;;;12.48;4.18;;;;;;;;;;5073225;28;20028;-71
2022/03/11 06:36:20;;;;;;;20.50;5.30;;;;;;;;;;5072619;28;20021;-70
2022/03/11 06:38:46;;;;;;;29.25;4.72;;;;;;;;;;5073801;28;20032;-75
2022/03/11 06:41:12;;;;;;;19.95;4.70;;;;;;;;;;5070080;28;20027;-74
2022/03/11 06:43:38;;;;;;;18.25;3.97;;;;;;;;;;5074374;28;20066;-71
2022/03/11 06:46:04;;;;;;;29.42;4.45;;;;;;;;;;5054559;28;20024;-71
2022/03/11 06:48:31;;;;;;;42.03;5.18;;;;;;;;;;5072512;28;20036;-70
2022/03/11 06:50:57;;;;;;;26.23;4.97;;;;;;;;;;5072598;28;20539;-72
2022/03/11 06:53:26;;;;;;;13.85;4.53;;;;;;;;;;5072817;28;20025;-70
2022/03/11 06:55:53;;;;;;;19.23;4.60;;;;;;;;;;5073303;28;20028;-75
2022/03/11 06:58:19;;;;;;;14.32;5.05;;;;;;;;;;5076032;28;20029;-77
2022/03/11 07:00:45;;;;;;;10.80;4.28;;;;;;;;;;5075612;28;20080;-78
2022/03/11 07:03:11;;;;;;;10.93;4.25;;;;;;;;;;5075913;28;20174;-76
2022/03/11 07:05:37;;;;;;;18.35;4.30;;;;;;;;;;5073103;28;20032;-69
2022/03/11 07:08:03;;;;;;;13.15;4.25;;;;;;;;;;5072004;28;20460;-70
2022/03/11 07:10:29;;;;;;;14.10;4.78;;;;;;;;;;5064533;28;20037;-69
2022/03/11 07:12:58;;;;;;;11.73;4.35;;;;;;;;;;5053353;28;20044;-70
2022/03/11 07:15:24;;;;;;;11.50;4.47;;;;;;;;;;5072065;28;20039;-70
2022/03/11 07:17:51;;;;;;;9.65;4.57;;;;;;;;;;5071960;28;20024;-70
2022/03/11 07:20:17;;;;;;;9.02;3.95;;;;;;;;;;5053857;28;20055;-70
2022/03/11 07:22:47;;;;;;;15.27;5.45;;;;;;;;;;5071387;28;20079;-70
2022/03/11 07:25:14;;;;;;;11.98;5.25;;;;;;;;;;5070835;28;20032;-69
2022/03/11 07:27:40;;;;;;;8.05;4.25;;;;;;;;;;5068267;28;20047;-69
2022/03/11 07:30:06;;;;;;;15.25;3.78;;;;;;;;;;5071549;28;20382;-69
2022/03/11 07:32:32;;;;;;;11.02;4.22;;;;;;;;;;5071572;28;20044;-70
2022/03/11 07:34:58;;;;;;;7.07;4.60;;;;;;;;;;5071595;28;20209;-70
2022/03/11 07:37:24;;;;;;;10.55;4.72;;;;;;;;;;5071799;28;20507;-70
2022/03/11 07:39:50;;;;;;;9.23;3.97;;;;;;;;;;5070261;28;20024;-70
2022/03/11 07:42:16;;;;;;;12.98;4.68;;;;;;;;;;5068138;28;20052;-70
2022/03/11 07:44:43;;;;;;;11.88;4.80;;;;;;;;;;5073615;28;20056;-70
2022/03/11 07:47:09;;;;;;;14.48;4.72;;;;;;;;;;5057143;28;20480;-70
2022/03/11 07:49:35;;;;;;;13.18;4.82;;;;;;;;;;5075151;28;20494;-70
2022/03/11 07:52:02;;;;;;;7.68;4.85;;;;;;;;;;5074954;28;20071;-70
2022/03/11 07:54:28;;;;;;;9.35;4.88;;;;;;;;;;5075133;28;20051;-71
2022/03/11 07:56:54;;;;;;;11.25;4.88;;;;;;;;;;5075257;28;20035;-69
2022/03/11 07:59:20;;;;;;;9.88;4.70;;;;;;;;;;5076508;28;20025;-77
2022/03/11 08:01:47;;;;;;;10.63;4.45;;;;;;;;;;5076037;28;20029;-68
2022/03/11 08:04:13;;;;;;;14.50;4.28;;;;;;;;;;5075082;28;20035;-68
2022/03/11 08:06:40;;;;;;;7.20;4.30;;;;;;;;;;5074934;28;20032;-68
2022/03/11 08:09:06;;;;;;;10.02;4.30;;;;;;;;;;5074715;28;20067;-69
2022/03/11 08:11:32;;;;;;;11.13;4.68;;;;;;;;;;5074644;28;20110;-68
2022/03/11 08:13:58;;;;;;;6.53;4.18;;;;;;;;;;5073751;28;20024;-68
2022/03/11 08:16:24;;;;;;;7.88;5.00;;;;;;;;;;5075669;28;20357;-70
2022/03/11 08:18:50;;;;;;;8.98;4.20;;;;;;;;;;5075274;28;20047;-72
2022/03/11 08:21:16;;;;;;;6.13;3.85;;;;;;;;;;5074768;28;20472;-71
2022/03/11 08:23:43;;;;;;;8.95;3.97;;;;;;;;;;5075017;28;20051;-74
2022/03/11 08:26:10;;;;;;;7.55;3.72;;;;;;;;;;5074896;28;20086;-68
2022/03/11 08:28:37;;;;;;;5.88;3.60;;;;;;;;;;5075363;28;20085;-71
2022/03/11 08:31:03;;;;;;;6.18;3.58;;;;;;;;;;5075285;28;20056;-69
2022/03/11 08:33:30;;;;;;;6.13;3.58;;;;;;;;;;5075570;28;20027;-71
2022/03/11 08:35:57;;;;;;;6.75;3.20;;;;;;;;;;5075309;28;20059;-72
2022/03/11 08:38:23;;;;;;;6.70;3.33;;;;;;;;;;5075516;28;20025;-71
2022/03/11 08:40:49;;;;;;;4.85;3.50;;;;;;;;;;5074751;28;20028;-71
2022/03/11 08:43:15;;;;;;;11.38;3.50;;;;;;;;;;5074049;28;20020;-71
2022/03/11 08:45:41;;;;;;;5.78;3.47;;;;;;;;;;5075021;28;20051;-73
2022/03/11 08:48:07;;;;;;;5.18;3.80;;;;;;;;;;5074710;28;20035;-71
2022/03/11 08:50:33;;;;;;;4.97;3.38;;;;;;;;;;5074587;28;20025;-72
2022/03/11 08:52:59;;;;;;;5.28;3.40;;;;;;;;;;5074338;28;20028;-70
2022/03/11 08:55:25;;;;;;;6.32;3.42;;;;;;;;;;5074440;28;20020;-67
2022/03/11 08:57:52;;;;;;;6.03;3.42;;;;;;;;;;5074316;28;20032;-70
2022/03/11 09:00:19;;;;;;;5.25;3.47;;;;;;;;;;5069508;28;20112;-71
2022/03/11 09:02:45;;;;;;;4.30;3.33;;;;;;;;;;5073757;28;20036;-73
2022/03/11 09:05:13;;;;;;;6.40;3.65;;;;;;;;;;5074598;28;20460;-71
2022/03/11 09:07:39;;;;;;;5.00;3.63;;;;;;;;;;5074492;28;20025;-71
2022/03/11 09:10:06;;;;;;;6.93;4.30;;;;;;;;;;5074672;28;20027;-73
2022/03/11 09:12:32;;;;;;;8.00;3.80;;;;;;;;;;5074537;28;20086;-74
2022/03/11 09:14:58;;;;;;;7.13;4.05;;;;;;;;;;5074683;28;20033;-70
2022/03/11 09:17:24;;;;;;;7.28;3.67;;;;;;;;;;5074669;28;20121;-73
2022/03/11 09:19:50;;;;;;;5.40;3.75;;;;;;;;;;5073671;28;20032;-72
2022/03/11 09:22:20;;;;;;;4.78;3.70;;;;;;;;;;5056079;28;20402;-72
2022/03/11 09:24:46;;;;;;;5.93;3.17;;;;;;;;;;5073839;28;20456;-72
2022/03/11 09:27:12;;;;;;;5.30;3.85;;;;;;;;;;5074212;28;20037;-72
2022/03/11 09:29:39;;;;;;;4.55;3.30;;;;;;;;;;5073698;28;20103;-66
2022/03/11 09:32:05;;;;;;;11.07;4.00;;;;;;;;;;5073126;28;20127;-69
2022/03/11 09:34:31;;;;;;;13.93;4.25;;;;;;;;;;5064735;28;20033;-67
2022/03/11 09:36:57;;;;;;;44.67;4.38;;;;;;;;;;5055028;28;20037;-66
2022/03/11 09:39:24;;;;;;;19.27;3.47;;;;;;;;;;5073067;28;20115;-66
2022/03/11 09:41:50;;;;;;;32.08;4.40;;;;;;;;;;5072760;28;20112;-68
2022/03/11 09:44:17;;;;;;;20.95;3.90;;;;;;;;;;5073152;28;20021;-66
2022/03/11 09:46:44;;;;;;;36.83;3.70;;;;;;;;;;5073470;28;20032;-71
2022/03/11 09:49:14;;;;;;;47.08;6.53;;;;;;;;;;5073164;28;20071;-65
2022/03/11 09:51:45;;;;;;;65.30;6.38;;;;;;;;;;5071188;28;20062;-71
2022/03/11 09:54:11;;;;;;;48.00;5.88;;;;;;;;;;5048884;28;20495;-64
2022/03/11 09:56:39;;;;;;;44.20;5.45;;;;;;;;;;5072505;28;20029;-64
2022/03/11 09:59:05;;;;;;;50.78;5.13;;;;;;;;;;5072587;28;20478;-67
2022/03/11 10:01:32;;;;;;;50.17;4.72;;;;;;;;;;5054252;28;20033;-63
2022/03/11 10:03:58;;;;;;;22.35;4.65;;;;;;;;;;5071989;28;20107;-64
2022/03/11 10:06:37;;;;;;;26.63;4.18;;;;;;;;;;5072395;28;20035;-64
2022/03/11 10:09:03;;;;;;;22.88;5.07;;;;;;;;;;5072416;28;20028;-64
2022/03/11 10:11:29;;;;;;;19.52;4.18;;;;;;;;;;5072225;28;20078;-64
2022/03/11 10:14:05;;;;;;;21.13;4.50;;;;;;;;;;5072027;28;20037;-64
2022/03/11 10:16:31;;;;;;;13.55;4.03;;;;;;;;;;5071866;28;20475;-65
2022/03/11 10:19:01;;;;;;;18.60;5.03;;;;;;;;;;5070715;28;20039;-64
2022/03/11 10:21:35;;;;;;;8.40;3.83;;;;;;;;;;5071180;28;20048;-66
2022/03/11 10:24:03;;;;;;;14.73;4.70;;;;;;;;;;5071165;28;20065;-64
2022/03/11 10:26:30;;;;;;;8.90;3.97;;;;;;;;;;5071074;28;20036;-64
2022/03/11 10:28:57;;;;;;;15.27;3.95;;;;;;;;;;5071705;28;20025;-65
2022/03/11 10:31:28;;;;;;;13.35;4.72;;;;;;;;;;5071293;28;20024;-65
2022/03/11 10:34:11;;;;;;;13.52;4.30;;;;;;;;;;5071941;28;20060;-64
2022/03/11 10:36:37;;;;;;;8.75;3.90;;;;;;;;;;5068866;28;20029;-65
2022/03/11 10:39:14;;;;;;;13.30;4.13;;;;;;;;;;5071633;28;20047;-64
2022/03/11 10:41:40;;;;;;;15.38;4.43;;;;;;;;;;5072013;28;20028;-65
2022/03/11 10:44:09;;;;;;;10.70;4.63;;;;;;;;;;5071846;28;20024;-65
2022/03/11 10:46:35;;;;;;;18.65;4.28;;;;;;;;;;5053227;28;20036;-65
2022/03/11 10:49:01;;;;;;;11.10;4.60;;;;;;;;;;5071948;28;20032;-65
2022/03/11 10:51:29;;;;;;;7.60;4.18;;;;;;;;;;5071859;28;20052;-65
2022/03/11 10:53:58;;;;;;;8.85;3.90;;;;;;;;;;5071786;28;20694;-65
2022/03/11 10:56:39;;;;;;;10.23;4.57;;;;;;;;;;5071803;28;20338;-64
2022/03/11 10:59:23;;;;;;;9.10;4.57;;;;;;;;;;5071691;28;20040;-64
2022/03/11 11:01:51;;;;;;;11.55;4.50;;;;;;;;;;5069809;28;20025;-66
2022/03/11 11:04:17;;;;;;;11.73;4.15;;;;;;;;;;5048880;28;20396;-69
2022/03/11 11:06:44;;;;;;;10.43;4.65;;;;;;;;;;5053631;28;20017;-68
2022/03/11 11:09:11;;;;;;;6.18;3.75;;;;;;;;;;5071759;28;20028;-68
2022/03/11 11:11:37;;;;;;;6.03;4.07;;;;;;;;;;5071551;28;20075;-67
2022/03/11 11:14:05;;;;;;;12.20;4.03;;;;;;;;;;5071740;28;20024;-69
2022/03/11 11:16:38;;;;;;;13.00;4.30;;;;;;;;;;5075034;28;20031;-67
2022/03/11 11:19:06;;;;;;;12.00;4.60;;;;;;;;;;5075508;28;20029;-69
2022/03/11 11:21:34;;;;;;;7.93;4.30;;;;;;;;;;5075198;28;20637;-68
2022/03/11 11:24:00;;;;;;;7.07;4.10;;;;;;;;;;5056937;28;20050;-69
2022/03/11 11:26:26;;;;;;;9.70;4.80;;;;;;;;;;5074887;28;20055;-66
2022/03/11 11:28:54;;;;;;;11.07;4.95;;;;;;;;;;5075314;28;20027;-66
2022/03/11 11:31:21;;;;;;;8.10;4.72;;;;;;;;;;5073916;28;20047;-67
2022/03/11 11:33:48;;;;;;;10.85;4.32;;;;;;;;;;5075069;28;20473;-67
2022/03/11 11:36:14;;;;;;;10.40;4.65;;;;;;;;;;5075088;28;20063;-67
2022/03/11 11:38:43;;;;;;;12.35;4.28;;;;;;;;;;5075177;28;20440;-67
2022/03/11 11:41:23;;;;;;;7.03;4.90;;;;;;;;;;5074878;28;20023;-66
2022/03/11 11:43:54;;;;;;;7.75;4.88;;;;;;;;;;5075552;28;20072;-67
2022/03/11 11:46:22;;;;;;;6.38;4.63;;;;;;;;;;5074306;28;20025;-68
2022/03/11 11:48:48;;;;;;;9.20;4.85;;;;;;;;;;5075075;28;20029;-66
2022/03/11 11:51:15;;;;;;;13.60;4.85;;;;;;;;;;5076450;28;20029;-70
2022/03/11 11:53:49;;;;;;;7.10;4.40;;;;;;;;;;5077333;28;20365;-68
2022/03/11 11:56:34;;;;;;;8.00;4.43;;;;;;;;;;5075526;28;20039;-67
2022/03/11 11:59:18;;;;;;;11.52;4.18;;;;;;;;;;5080909;28;20518;-69
2022/03/11 12:01:48;;;;;;;7.75;4.47;;;;;;;;;;5076349;28;20040;-67
2022/03/11 12:04:25;;;;;;;5.93;4.15;;;;;;;;;;5056795;28;20043;-68
2022/03/11 12:06:52;;;;;;;7.13;4.15;;;;;;;;;;5073420;28;20036;-68
2022/03/11 12:09:36;;;;;;;7.47;4.30;;;;;;;;;;5074703;28;20605;-67
2022/03/11 12:12:02;;;;;;;5.47;3.83;;;;;;;;;;5067204;28;20502;-68
2022/03/11 12:14:29;;;;;;;4.25;3.28;;;;;;;;;;5069021;28;20171;-68
2022/03/11 12:16:59;;;;;;;10.10;3.90;;;;;;;;;;5054299;28;20031;-69
2022/03/11 12:19:38;;;;;;;7.15;3.50;;;;;;;;;;5054222;28;20056;-69
2022/03/11 12:22:23;;;;;;;10.88;3.60;;;;;;;;;;5054047;28;20555;-67
2022/03/11 12:24:59;;;;;;;10.07;3.90;;;;;;;;;;5037619;28;20033;-67
2022/03/11 12:27:44;;;;;;;5.03;3.70;;;;;;;;;;5035568;28;20025;-68
2022/03/11 12:30:10;;;;;;;5.18;3.40;;;;;;;;;;5066850;28;20052;-68
2022/03/11 12:32:38;;;;;;;6.30;3.92;;;;;;;;;;5073716;28;20036;-66
2022/03/11 12:35:05;;;;;;;5.85;3.58;;;;;;;;;;5073529;28;20020;-68
2022/03/11 12:37:32;;;;;;;5.97;3.50;;;;;;;;;;5056102;28;20469;-66
2022/03/11 12:40:01;;;;;;;12.15;3.60;;;;;;;;;;5069651;28;20017;-67
2022/03/11 12:42:36;;;;;;;10.25;4.00;;;;;;;;;;5068531;28;20032;-68
2022/03/11 12:45:03;;;;;;;6.20;3.65;;;;;;;;;;5073682;28;20764;-69
2022/03/11 12:47:36;;;;;;;6.93;4.00;;;;;;;;;;5055875;28;20173;-69
2022/03/11 12:50:03;;;;;;;4.32;3.50;;;;;;;;;;5073802;28;20024;-67
2022/03/11 12:52:35;;;;;;;4.68;3.40;;;;;;;;;;5073564;28;20036;-68
2022/03/11 12:55:01;;;;;;;8.15;3.60;;;;;;;;;;5073761;28;20043;-70
2022/03/11 12:57:27;;;;;;;4.90;3.22;;;;;;;;;;5073125;28;20472;-68
2022/03/11 12:59:53;;;;;;;5.60;3.70;;;;;;;;;;5073665;28;20024;-67
2022/03/11 13:02:19;;;;;;;12.48;3.88;;;;;;;;;;5073548;28;20414;-66
2022/03/11 13:04:46;;;;;;;14.43;3.92;;;;;;;;;;5072095;28;20029;-65
2022/03/11 13:07:17;;;;;;;11.18;4.47;;;;;;;;;;5065759;28;20028;-64
2022/03/11 13:09:43;;;;;;;14.15;3.88;;;;;;;;;;5071242;28;20021;-66
2022/03/11 13:12:27;;;;;;;14.52;4.72;;;;;;;;;;5062566;28;20159;-68
2022/03/11 13:15:12;;;;;;;8.18;5.13;;;;;;;;;;5064208;28;20020;-68
2022/03/11 13:17:44;;;;;;;11.18;5.15;;;;;;;;;;5073152;28;20062;-68
2022/03/11 13:20:25;;;;;;;8.70;5.60;;;;;;;;;;5072988;28;20476;-68
2022/03/11 13:22:52;;;;;;;11.75;6.50;;;;;;;;;;5071899;28;20036;-68
2022/03/11 13:25:23;;;;;;;11.95;6.95;;;;;;;;;;5073046;28;20472;-68
2022/03/11 13:27:49;;;;;;;15.48;7.93;;;;;;;;;;5054897;28;20484;-68
2022/03/11 13:30:15;;;;;;;12.30;7.68;;;;;;;;;;5073018;28;20090;-68
2022/03/11 13:32:41;;;;;;;17.27;8.02;;;;;;;;;;5072489;28;20036;-68
2022/03/11 13:35:08;;;;;;;19.45;8.13;;;;;;;;;;5072466;28;20020;-67
2022/03/11 13:37:43;;;;;;;14.15;8.15;;;;;;;;;;5072114;28;20797;-68
2022/03/11 13:40:10;;;;;;;14.43;8.57;;;;;;;;;;5072368;28;20037;-67
2022/03/11 13:42:36;;;;;;;13.77;8.30;;;;;;;;;;5072630;28;20028;-67
2022/03/11 13:45:05;;;;;;;13.75;9.02;;;;;;;;;;5072673;28;20031;-68
2022/03/11 13:47:32;;;;;;;12.60;8.48;;;;;;;;;;5054562;28;20399;-68
2022/03/11 13:50:06;;;;;;;14.27;9.55;;;;;;;;;;5065964;28;20495;-67
2022/03/11 13:52:40;;;;;;;16.88;10.43;;;;;;;;;;5069382;28;20044;-68
2022/03/11 13:55:10;;;;;;;14.00;8.63;;;;;;;;;;5072518;28;20112;-68
2022/03/11 13:57:36;;;;;;;15.82;9.57;;;;;;;;;;5072341;28;20111;-68
2022/03/11 14:00:17;;;;;;;15.35;9.68;;;;;;;;;;5072334;28;20515;-69
2022/03/11 14:02:44;;;;;;;17.05;9.60;;;;;;;;;;5072320;28;20060;-67
2022/03/11 14:05:10;;;;;;;15.57;9.65;;;;;;;;;;5072347;28;20059;-68
2022/03/11 14:07:36;;;;;;;17.50;9.43;;;;;;;;;;5065117;28;20680;-70
2022/03/11 14:10:02;;;;;;;18.27;10.23;;;;;;;;;;5066910;28;20087;-70
2022/03/11 14:12:29;;;;;;;14.57;9.95;;;;;;;;;;5071701;28;20388;-70
2022/03/11 14:15:05;;;;;;;18.05;11.15;;;;;;;;;;5072183;28;20041;-73
2022/03/11 14:17:31;;;;;;;14.02;9.98;;;;;;;;;;5054818;28;20034;-73
2022/03/11 14:19:58;;;;;;;21.25;11.02;;;;;;;;;;5054923;28;20052;-72
2022/03/11 14:22:24;;;;;;;18.27;11.35;;;;;;;;;;5072415;28;20048;-73
2022/03/11 14:24:50;;;;;;;18.80;11.13;;;;;;;;;;5072816;28;20066;-72
2022/03/11 14:27:17;;;;;;;17.70;11.27;;;;;;;;;;5058778;28;20131;-70
2022/03/11 14:29:43;;;;;;;16.92;10.55;;;;;;;;;;5056170;28;20024;-69
2022/03/11 14:32:09;;;;;;;20.63;10.35;;;;;;;;;;5071482;28;20036;-71
2022/03/11 14:34:35;;;;;;;19.95;10.60;;;;;;;;;;5071466;28;20028;-68
2022/03/11 14:37:03;;;;;;;16.60;10.48;;;;;;;;;;5071562;28;20070;-68
2022/03/11 14:39:29;;;;;;;15.63;10.95;;;;;;;;;;5057250;28;20032;-69